Stouffville Airport

CA-0635 · 安大略, 加拿大

罗盘
风向 的 风向 的 风向 到 风向 250°
风向 到 风: 12 kt, 阵阵 23 kt, 4 beaufort

添加一条跑道以查看侧风和逆风信息。

添置 跑道
0 1.000 2.000 3.000 4.000 5.000
OVC 400 ft
METAR CYOO 031544Z AUTO 25012G23KT 200V260 5SM -RA BR OVC004 08/08 A2962 RMK PRESRR SLP036

METAR Stouffville Airport - CA-0635

Stouffville Airport是,加拿大中的小机场。 视场标高为972 ft。 该领域的国际民航组织标志是CA-0635.

这份报告是针对2022年12月3日 10:44, 当地时间在Toronto/Oshawa Executive Airport进行的。

机场观察

风向为250°,速度为12 kt。 已测得23 kt的阵风。 风向在200°和260°之间变化。

可见度为5 mi。

有乌云密布在400 ft的高度。 破损或更高的上限为400 ft。

当前天气为光 雨, 薄雾。 温度为8 °C,阵风为3 °C。 露点为8 °C,相对湿度为100%。 海平面上的气压为29,62 inHg (QNH)。

白天

今天,太阳从07:34升起,在16:39降落。 这适用于Stouffville Airport,世界夏令时可能有所不同。 当地时间与世界标准时间之间的时差为-5 小时。 当前,没有夏令时有效。

公司介绍

我们没有关于这个机场的公司信息。

体会

到Vliegles.nl去找飞行课程,跳伞和其他飞行体验。 浏览页面,了解Stouffville Airport附近所有可用的活动。 你也可以使用搜索功能来寻找你所在地附近的特定飞行课程、跳伞或其他飞行体验。

乌云

400 ft OVC 乌云密布

温度 & 天气

天气 光 雨
薄雾
温度 8 °C
露点 8 °C
相对湿度 100%
风寒 3 °C
Kp-index 2 (0-9)

评论

PRESRR气压迅速上升
SLP036海平面压力为29,64 inHg (29,64 inHg)

白天

日出
07:32
中午
12:05
日落
16:38 (5:52)

小工具

你想在你的网站上有一个关于Stouffville Airport的当前航空天气(METAR)的小部件吗?

显示HTML代码

我们和第三方通过cookies跟踪您在我们网站上的互联网行为。如果你继续,我们认为你同意我们的饼干政策